CYNACYZV

Guest
Details From CYNA - Natashquan
To CYZV - Sept Iles
Flight Number -
Tags Generated
Created
Modified
Stats Distance 172 nm / 319 km
Max Altitude 0 ft / 0 m
Waypoints 2
Social Downloads 2
Likes 0
Share VATSIM

Download

Looking for another format? Having issues loading an existing format? Contact us
Advertisement - Login to hide

Notes

Generated

Route

CYNA CYZV

ID Type Via Altitude Latitude Longitude Leg Dist Tot Dist Heading (true) Name
O CYNA APT - 0 ft / 0 m 50.19296˚ -61.79743˚ - 0 nm - -
O CYZV APT - 0 ft / 0 m 50.22972˚ -66.27694˚ 172 nm 172 nm 272° / 269° -

Altitude Profile

Advertisement - Login to hide

Weather


0- 5 10 15 20 25 30 35+ Temperature / ° C

Clouds and Precipitation
Forecast for 2018-05-21 06:00 UTC. Updated 2 minutes ago

Ground ~20,000 ft ~40,000 ft Winds

CYNA

Details ICAO CYNA (YNA)
Name NATASHQUAN
Region Canada
Timezone America/Montreal (UTC-4.0)
Stats Elevation 39 ft / 12 m (AMSL)
Location 50.190084° -61.788947°
Runways 1
Magnetic Variation 19.387° W

METAR

CYNA 210300Z AUTO 29008KT 9SM CLR 05/M00 A2969 RMK SLP055

Decode

TAF

TAF CYNA 210138Z 2102/2114 30012G22KT P6SM FEW060 BECMG 2103/2105 30008KT FM210900 26008KT P6SM BKN060 BECMG 2112/2114 25012G22KT RMK FCST BASED ON AUTO OBS. NXT FCST BY 210800Z

Decode

Departure Runways

ID Width Length Bearing (true) Bearing (mag) Surface Threshold Offset Overrun Length
14 100 ft / 30 m 4,486 ft / 1,367 m 117.90° 137.29° Asphalt 0 ft / 0 m 0 ft / 0 m
32 100 ft / 30 m 4,486 ft / 1,367 m 297.91° 317.30° Asphalt 0 ft / 0 m 0 ft / 0 m

CYZV

Details ICAO CYZV (YZV)
Name SEPT ILES
Region Canada
Timezone America/Montreal (UTC-4.0)
Stats Elevation 180 ft / 55 m (AMSL)
Location 50.223890° -66.267501°
Runways 3
Magnetic Variation 18.739° W

METAR

CYZV 210300Z 30004KT 15SM SCT140 02/M03 A2976 RMK AC3 SLP083

Decode

TAF

TAF TAF CYZV 202338Z 2100/2124 30010G20KT P6SM FEW060 BECMG 2101/2103 32005KT FM210300 32005KT P6SM BKN040 TEMPO 2104/2109 P6SM -SHRASN BKN020 FM210900 31005KT P6SM BKN030 TEMPO 2109/2115 BKN020 BECMG 2112/2114 30012KT FM212100 31012KT P6SM SCT040 RMK NXT FCST BY 210600Z

Decode

Destination Runways

ID Width Length Bearing (true) Bearing (mag) Surface Threshold Offset Overrun Length
05 200 ft / 61 m 5,936 ft / 1,809 m 29.45° 48.19° Asphalt 0 ft / 0 m 0 ft / 0 m
09 150 ft / 46 m 6,647 ft / 2,026 m 69.47° 88.21° Asphalt 0 ft / 0 m 0 ft / 0 m
13 200 ft / 61 m 6,055 ft / 1,846 m 109.55° 128.29° Asphalt 0 ft / 0 m 0 ft / 0 m
23 200 ft / 61 m 5,936 ft / 1,809 m 209.46° 228.20° Asphalt 0 ft / 0 m 0 ft / 0 m
27 150 ft / 46 m 6,647 ft / 2,026 m 249.49° 268.23° Asphalt 0 ft / 0 m 0 ft / 0 m
31 200 ft / 61 m 6,055 ft / 1,846 m 289.57° 308.31° Asphalt 0 ft / 0 m 0 ft / 0 m

Approach Navaids

Runway Type Ident Frequency Range Bearing (true) Bearing (mag) Slope Elevation
09 Localiser IZV 109.50 MHz 18 nm / 33 km 69.03° 87.77° - 172 ft / 52 m (AMSL)
09 Glidescope IZV 109.50 MHz 10 nm / 19 km 91.00° 109.74° 3.00° 169 ft / 52 m (AMSL)